DRI Storm Peak Lab. Weather observations

Data are for 5 minute period ending at time listed.
 Day   Time    Ave.   Ave.  Ave.  Vector  Max.   Total    Baro.    Solar      Aerosol      Ave.  Ultrafine   Snow  
  of    of     Air    Rel.  Wind   Wind   Wind  Precip.   Pres.  Radiation   Aerosol      Ozone   Aerosol    Depth 
Year   Day     Temp.  Hum.  Speed  Dir.   Gust                               Ave.   Max.            Ave.           
2017   (MST)    F      %     mph   deg.    mph    in.      mb.     w/m2         #/cm3      ppbv    #/cm3      in.  
-------------------------------------------------------------------------------------------------------------------
 144    4:40   36.7    69    9.2   263    14.4   999.00    689.7    999.0    999000   999000   999.0    999000   999.0
 144    4:45   36.7    69   11.1   262    16.9   999.00    689.6    999.0    999000   999000   999.0    999000   999.0
 144    4:50   37.0    68   13.2   260    17.4   999.00    689.5    999.0    999000   999000   999.0    999000   999.0
 144    4:55   36.7    68    7.3   260    14.3   999.00    689.5    999.0    999000   999000   999.0    999000   999.0
 144    5:00   36.5    69   11.2   260    16.9   999.00    689.4    999.0    999000   999000   999.0    999000   999.0
 144    5:05   36.5    68   12.3   259    16.9   999.00    689.4    999.0    999000   999000   999.0    999000   999.0
 144    5:10   36.5    68   11.5   259    16.9   999.00    689.3    999.0    999000   999000   999.0    999000   999.0
 144    5:15   36.7    69   15.8   254    20.2   999.00    689.3    999.0    999000   999000   999.0    999000   999.0
 144    5:20   36.6    69   14.4   258    18.4   999.00    689.2    999.0    999000   999000   999.0    999000   999.0
 144    5:25   36.7    68   15.3   258    18.0   999.00    689.2    999.0    999000   999000   999.0    999000   999.0
 144    5:30   36.9    68   12.7   259    17.1   999.00    689.3    999.0    999000   999000   999.0    999000   999.0
 144    5:35   37.0    68   13.2   259    16.5   999.00    689.3    999.0    999000   999000   999.0    999000   999.0
 144    5:40   37.0    68   14.6   258    18.4   999.00    689.3    999.0    999000   999000   999.0    999000   999.0
 144    5:45   37.0    68   16.1   256    18.7   999.00    689.3    999.0    999000   999000   999.0    999000   999.0
 144    5:50   37.2    68   16.4   255    20.4   999.00    689.2    999.0    999000   999000   999.0    999000   999.0
 144    5:55   37.1    68   14.8   254    18.5   999.00    689.3    999.0    999000   999000   999.0    999000   999.0
 144    6:00   37.2    67   15.8   253    19.9   999.00    689.3    999.0    999000   999000   999.0    999000   999.0
 144    6:05   37.2    67   16.5   251    22.1   999.00    689.3    999.0    999000   999000   999.0    999000   999.0
 144    6:10   37.2    67   16.5   248    19.9   999.00    689.2    999.0    999000   999000   999.0    999000   999.0
 144    6:15   37.6    67   17.3   244    22.5   999.00    689.3    999.0    999000   999000   999.0    999000   999.0
 144    6:20   37.5    68   17.0   242    20.2   999.00    689.3    999.0    999000   999000   999.0    999000   999.0
 144    6:25   37.5    68   14.3   240    20.0   999.00    689.3    999.0    999000   999000   999.0    999000   999.0
 144    6:30   37.5    68   13.1   239    17.8   999.00    689.3    999.0    999000   999000   999.0    999000   999.0
 144    6:35   37.4    68   12.0   238    16.5   999.00    689.2    999.0    999000   999000   999.0    999000   999.0
 144    6:40   37.5    68   15.1   237    19.3   999.00    689.1    999.0    999000   999000   999.0    999000   999.0
 144    6:45   37.6    67   14.3   235    18.4   999.00    689.1    999.0    999000   999000   999.0    999000   999.0
 144    6:50   37.5    67   14.3   232    20.6   999.00    689.0    999.0    999000   999000   999.0    999000   999.0
 144    6:55   37.6    67   12.0   231    17.1   999.00    688.9    999.0    999000   999000   999.0    999000   999.0
 144    7:00   37.6    67   12.4   230    18.0   999.00    688.9    999.0    999000   999000   999.0    999000   999.0
 144    7:05   37.6    67   13.1   230    21.0   999.00    688.9    999.0    999000   999000   999.0    999000   999.0
 144    7:10   37.7    66   12.4   228    20.0   999.00    688.8    999.0    999000   999000   999.0    999000   999.0
 144    7:15   37.8    66   10.5   227    19.1   999.00    688.9    999.0    999000   999000   999.0    999000   999.0
 144    7:20   37.6    67   13.6   228    18.5   999.00    688.8    999.0    999000   999000   999.0    999000   999.0
 144    7:25   37.6    67    9.8   228    16.3   999.00    688.8    999.0    999000   999000   999.0    999000   999.0
 144    7:30   37.5    68    9.0   228    13.7   999.00    688.8    999.0    999000   999000   999.0    999000   999.0
 144    7:35   37.4    67    9.7   229    16.7   999.00    688.8    999.0    999000   999000   999.0    999000   999.0
 144    7:40   37.6    66   12.6   231    17.4   999.00    688.7    999.0    999000   999000   999.0    999000   999.0
 144    7:45   37.6    66   13.8   232    18.2   999.00    688.7    999.0    999000   999000   999.0    999000   999.0
 144    7:50   37.5    66   12.4   236    18.0   999.00    688.7    999.0    999000   999000   999.0    999000   999.0
 144    7:55   37.9    65   14.5   237    19.7   999.00    688.6    999.0    999000   999000   999.0    999000   999.0
 144    8:00   38.0    64   14.3   248    17.8   999.00    688.6    999.0    999000   999000   999.0    999000   999.0
 144    8:05   38.3    65   10.9   255    18.2   999.00    688.6    999.0    999000   999000   999.0    999000   999.0
 144    8:10   38.4    63   15.1   256    24.0   999.00    688.6    999.0    999000   999000   999.0    999000   999.0
 144    8:15   38.6    63   14.4   258    24.9   999.00    688.5    999.0    999000   999000   999.0    999000   999.0
 144    8:20   38.7    62   12.3   260    18.4   999.00    688.5    999.0    999000   999000   999.0    999000   999.0
 144    8:25   39.0    62   13.3   264    20.0   999.00    688.4    999.0    999000   999000   999.0    999000   999.0
 144    8:30   39.1    62   12.2   264    17.6   999.00    688.5    999.0    999000   999000   999.0    999000   999.0
 144    8:35   39.0    63   10.7   265    16.1   999.00    688.5    999.0    999000   999000   999.0    999000   999.0
 144    8:40   39.2    63   12.1   265    19.5   999.00    688.5    999.0    999000   999000   999.0    999000   999.0
 144    8:45   39.4    63    6.5   264    12.6   999.00    688.5    999.0    999000   999000   999.0    999000   999.0
 144    8:50   39.6    63   11.9   265    19.1   999.00    688.5    999.0    999000   999000   999.0    999000   999.0
 144    8:55   39.4    64    7.0   264    11.7   999.00    688.5    999.0    999000   999000   999.0    999000   999.0
 144    9:00   40.1    63    7.8   263    19.1   999.00    688.5    999.0    999000   999000   999.0    999000   999.0
 144    9:05   39.5    64    9.9   248    22.5   999.00    688.5    999.0    999000   999000   999.0    999000   999.0
 144    9:10   40.2    64    9.2   252    19.7   999.00    688.5    999.0    999000   999000   999.0    999000   999.0
 144    9:15   39.7    65   12.0   261    22.3   999.00    688.4    999.0    999000   999000   999.0    999000   999.0
 144    9:20   40.2    63    7.3   264    16.9   999.00    688.4    999.0    999000   999000   999.0    999000   999.0
 144    9:25   40.5    63    8.0   266    14.4   999.00    688.3    999.0    999000   999000   999.0    999000   999.0
 144    9:30   40.6    63    4.4   266     7.4   999.00    688.4    999.0    999000   999000   999.0    999000   999.0
 144    9:35   40.8    62    4.1   265     8.3   999.00    688.3    999.0    999000   999000   999.0    999000   999.0
 144    9:40   41.0    62    6.6   266    13.2   999.00    688.2    999.0    999000   999000   999.0    999000   999.0
 144    9:45   41.2    62    7.6   266    12.2   999.00    688.2    999.0    999000   999000   999.0    999000   999.0
 144    9:50   41.3    61    8.6   262    14.1   999.00    688.2    999.0    999000   999000   999.0    999000   999.0
 144    9:55   41.6    60    8.0   250    16.5   999.00    688.2    999.0    999000   999000   999.0    999000   999.0
 144   10:00   41.9    61   10.5   250    17.4   999.00    688.1    999.0    999000   999000   999.0    999000   999.0
 144   10:05   41.5    61   14.2   250    23.4   999.00    688.1    999.0    999000   999000   999.0    999000   999.0
 144   10:10   42.1    62    5.6   252    10.4   999.00    688.2    999.0    999000   999000   999.0    999000   999.0
 144   10:15   42.3    62    6.5   225    16.5   999.00    688.1    999.0    999000   999000   999.0    999000   999.0
 144   10:20   42.8    61    6.9   251    12.0   999.00    687.9    999.0    999000   999000   999.0    999000   999.0
 144   10:25   42.9    61    7.4   262    14.3   999.00    687.9    999.0    999000   999000   999.0    999000   999.0
 144   10:30   42.6    61   13.6   259    22.1   999.00    687.8    999.0    999000   999000   999.0    999000   999.0
 144   10:35   42.7    62   10.6   254    18.4   999.00    687.8    999.0    999000   999000   999.0    999000   999.0
 144   10:40   43.1    61   14.5   255    22.5   999.00    687.7    999.0    999000   999000   999.0    999000   999.0
 144   10:45   43.4    57   19.1   271    28.2   999.00    687.5    999.0    999000   999000   999.0    999000   999.0
 144   10:50   43.6    56   21.7   268    33.8   999.00    687.5    999.0    999000   999000   999.0    999000   999.0
 144   10:55   43.9    57   16.3   266    33.4   999.00    687.5    999.0    999000   999000   999.0    999000   999.0
 144   11:00   43.9    54   26.4   264    38.3   999.00    687.3    999.0    999000   999000   999.0    999000   999.0
 144   11:05   44.2    55   18.3   277    27.5   999.00    687.3    999.0    999000   999000   999.0    999000   999.0
 144   11:10   44.4    56   17.2   283    24.3   999.00    687.3    999.0    999000   999000   999.0    999000   999.0
 144   11:15   44.7    56   18.1   286    24.5   999.00    687.3    999.0    999000   999000   999.0    999000   999.0
 144   11:20   44.7    54   20.7   269    31.0   999.00    687.3    999.0    999000   999000   999.0    999000   999.0
 144   11:25   44.9    54   17.9   276    27.9   999.00    687.2    999.0    999000   999000   999.0    999000   999.0
 144   11:30   45.0    54   21.8   268    30.5   999.00    687.1    999.0    999000   999000   999.0    999000   999.0
 144   11:35   45.1    54   18.5   268    28.0   999.00    687.2    999.0    999000   999000   999.0    999000   999.0
 144   11:40   44.9    55   19.5   275    26.2   999.00    687.1    999.0    999000   999000   999.0    999000   999.0
 144   11:45   44.5    58   16.2   284    24.0   999.00    687.1    999.0    999000   999000   999.0    999000   999.0
 144   11:50   44.9    55   16.3   279    25.8   999.00    687.0    999.0    999000   999000   999.0    999000   999.0
 144   11:55   44.8    55   14.6   282    25.1   999.00    686.9    999.0    999000   999000   999.0    999000   999.0
 144   12:00   45.1    54   13.6   278    20.8   999.00    686.9    999.0    999000   999000   999.0    999000   999.0
 144   12:05   45.2    54   13.0   287    19.9   999.00    686.8    999.0    999000   999000   999.0    999000   999.0
 144   12:10   45.1    55   10.9   286    19.7   999.00    686.9    999.0    999000   999000   999.0    999000   999.0
 144   12:15   46.1    50   17.9   256    29.3   999.00    686.8    999.0    999000   999000   999.0    999000   999.0
 144   12:20   46.2    50   18.2   268    27.5   999.00    686.7    999.0    999000   999000   999.0    999000   999.0
 144   12:25   47.1    46   18.0   273    25.1   999.00    686.6    999.0    999000   999000   999.0    999000   999.0
 144   12:30   47.0    46   17.6   268    31.8   999.00    686.6    999.0    999000   999000   999.0    999000   999.0
 144   12:35   47.2    44   22.4   245    33.6   999.00    686.6    999.0    999000   999000   999.0    999000   999.0
 144   12:40   47.6    44   21.3   253    35.7   999.00    686.5    999.0    999000   999000   999.0    999000   999.0
 144   12:45   48.0    43   21.3   262    29.3   999.00    686.5    999.0    999000   999000   999.0    999000   999.0
 144   12:50   47.8    44   19.9   263    29.2   999.00    686.4    999.0    999000   999000   999.0    999000   999.0
 144   12:55   48.1    41   21.9   272    33.8   999.00    686.4    999.0    999000   999000   999.0    999000   999.0
 144   13:00   48.3    41   18.6   273    31.2   999.00    686.4    999.0    999000   999000   999.0    999000   999.0
 144   13:05   48.3    41   20.4   270    28.6   999.00    686.3    999.0    999000   999000   999.0    999000   999.0
 144   13:10   48.7    42   19.5   274    28.4   999.00    686.2    999.0    999000   999000   999.0    999000   999.0
 144   13:15   48.6    41   18.4   263    26.5   999.00    686.3    999.0    999000   999000   999.0    999000   999.0
 144   13:20   49.1    40   19.0   267    31.2   999.00    686.2    999.0    999000   999000   999.0    999000   999.0
 144   13:25   49.1    39   18.5   254    28.2   999.00    686.3    999.0    999000   999000   999.0    999000   999.0
 144   13:30   49.1    37   20.7   263    34.9   999.00    686.1    999.0    999000   999000   999.0    999000   999.0
 144   13:35   49.0    37   20.7   274    31.6   999.00    686.0    999.0    999000   999000   999.0    999000   999.0
 144   13:40   49.1    36   25.2   260    37.3   999.00    686.0    999.0    999000   999000   999.0    999000   999.0
 144   13:45   48.9    37   29.6   244    39.4   999.00    686.0    999.0    999000   999000   999.0    999000   999.0
 144   13:50   49.3    38   21.5   278    34.7   999.00    685.8    999.0    999000   999000   999.0    999000   999.0
 144   13:55   49.6    38   17.7   265    25.6   999.00    685.9    999.0    999000   999000   999.0    999000   999.0
 144   14:00   49.8    38   20.8   259    30.1   999.00    685.9    999.0    999000   999000   999.0    999000   999.0
 144   14:05   49.8    40   13.8   261    20.4   999.00    685.9    999.0    999000   999000   999.0    999000   999.0
 144   14:10   50.1    39   16.1   283    24.5   999.00    685.8    999.0    999000   999000   999.0    999000   999.0
 144   14:15   49.4    39   22.4   290    29.5   999.00    685.6    999.0    999000   999000   999.0    999000   999.0
 144   14:20   49.5    39   17.3   284    27.3   999.00    685.6    999.0    999000   999000   999.0    999000   999.0
 144   14:25   50.1    39   20.6   282    29.2   999.00    685.6    999.0    999000   999000   999.0    999000   999.0
 144   14:30   49.9    40   17.8   270    27.9   999.00    685.6    999.0    999000   999000   999.0    999000   999.0
 144   14:35   49.9    40   17.4   282    25.1   999.00    685.5    999.0    999000   999000   999.0    999000   999.0
 144   14:40   50.1    41   16.6   271    28.2   999.00    685.5    999.0    999000   999000   999.0    999000   999.0
 144   14:45   50.3    39   26.9   266    35.7   999.00    685.3    999.0    999000   999000   999.0    999000   999.0
 144   14:50   50.0    39   23.6   248    35.5   999.00    685.4    999.0    999000   999000   999.0    999000   999.0
 144   14:55   50.5    40   23.0   264    32.0   999.00    685.3    999.0    999000   999000   999.0    999000   999.0
 144   15:00   50.6    39   22.7   262    34.0   999.00    685.4    999.0    999000   999000   999.0    999000   999.0
 144   15:05   50.5    37   25.3   262    37.2   999.00    685.2    999.0    999000   999000   999.0    999000   999.0
 144   15:10   50.4    37   29.0   262    37.7   999.00    685.1    999.0    999000   999000   999.0    999000   999.0
 144   15:15   50.6    37   24.0   259    35.3   999.00    685.2    999.0    999000   999000   999.0    999000   999.0
 144   15:20   50.8    36   27.1   252    39.6   999.00    685.1    999.0    999000   999000   999.0    999000   999.0
 144   15:25   50.9    36   26.2   256    36.2   999.00    685.1    999.0    999000   999000   999.0    999000   999.0
 144   15:30   50.6    36   29.5   257    42.4   999.00    684.9    999.0    999000   999000   999.0    999000   999.0
 144   15:35   50.8    36   19.2   257    30.1   999.00    685.1    999.0    999000   999000   999.0    999000   999.0
 144   15:40   51.2    35   27.9   250    40.3   999.00    684.9    999.0    999000   999000   999.0    999000   999.0
 144   15:45   51.0    33   24.3   265    31.8   999.00    684.9    999.0    999000   999000   999.0    999000   999.0
 144   15:50   51.2    35   20.6   270    35.3   999.00    684.9    999.0    999000   999000   999.0    999000   999.0
 144   15:55   51.6    34   23.9   273    32.5   999.00    684.8    999.0    999000   999000   999.0    999000   999.0
 144   16:00   51.6    35   22.5   260    33.6   999.00    684.7    999.0    999000   999000   999.0    999000   999.0
 144   16:05   51.6    33   23.4   259    31.4   999.00    684.8    999.0    999000   999000   999.0    999000   999.0
 144   16:10   51.7    35   22.2   263    32.3   999.00    684.6    999.0    999000   999000   999.0    999000   999.0
 144   16:15   51.6    34   24.6   277    34.2   999.00    684.4    999.0    999000   999000   999.0    999000   999.0
 144   16:20   51.7    34   25.2   286    35.3   999.00    684.4    999.0    999000   999000   999.0    999000   999.0
 144   16:25   51.6    34   22.9   281    29.2   999.00    684.4    999.0    999000   999000   999.0    999000   999.0
 144   16:30   51.4    34   25.9   284    32.9   999.00    684.3    999.0    999000   999000   999.0    999000   999.0
 144   16:35   51.1    35   24.5   278    37.0   999.00    684.2    999.0    999000   999000   999.0    999000   999.0
 144   16:40   51.4    34   23.2   264    30.5   999.00    684.2    999.0    999000   999000   999.0    999000   999.0
 144   16:45   51.5    33   23.3   264    32.5   999.00    684.2    999.0    999000   999000   999.0    999000   999.0
 144   16:50   51.7    33   23.6   263    41.8   999.00    684.0    999.0    999000   999000   999.0    999000   999.0
 144   16:55   51.0    33   26.4   266    38.1   999.00    683.9    999.0    999000   999000   999.0    999000   999.0
 144   17:00   50.3    35   25.0   262    31.8   999.00    684.1    999.0    999000   999000   999.0    999000   999.0
 144   17:05   49.9    36   19.0   263    31.0   999.00    684.3    999.0    999000   999000   999.0    999000   999.0
 144   17:10   50.1    36   20.6   255    28.8   999.00    684.4    999.0    999000   999000   999.0    999000   999.0
 144   17:15   49.8    38   21.8   245    27.9   999.00    684.5    999.0    999000   999000   999.0    999000   999.0
 144   17:20   49.4    43   17.7   234    22.3   999.00    684.5    999.0    999000   999000   999.0    999000   999.0
 144   17:25   49.5    43   19.2   231    26.9   999.00    684.5    999.0    999000   999000   999.0    999000   999.0
 144   17:30   49.5    43   21.2   234    27.5   999.00    684.4    999.0    999000   999000   999.0    999000   999.0
 144   17:35   49.8    44   20.0   236    28.0   999.00    684.4    999.0    999000   999000   999.0    999000   999.0
 144   17:40   50.1    42   21.9   235    28.0   999.00    684.3    999.0    999000   999000   999.0    999000   999.0
 144   17:45   50.6    40   22.1   234    28.8   999.00    684.2    999.0    999000   999000   999.0    999000   999.0
 144   17:50   50.3    42   19.2   239    26.0   999.00    684.2    999.0    999000   999000   999.0    999000   999.0
 144   17:55   50.1    42   18.8   237    24.0   999.00    684.2    999.0    999000   999000   999.0    999000   999.0
 144   18:00   50.3    42   20.3   245    25.4   999.00    684.1    999.0    999000   999000   999.0    999000   999.0
 144   18:05   49.8    43   25.3   245    34.0   999.00    684.0    999.0    999000   999000   999.0    999000   999.0
 144   18:10   49.6    42   25.6   238    33.8   999.00    684.0    999.0    999000   999000   999.0    999000   999.0
 144   18:15   49.7    42   25.3   243    32.7   999.00    684.0    999.0    999000   999000   999.0    999000   999.0
 144   18:20   49.7    42   23.1   246    30.6   999.00    684.0    999.0    999000   999000   999.0    999000   999.0
 144   18:25   49.5    43   15.2   250    21.3   999.00    684.0    999.0    999000   999000   999.0    999000   999.0
 144   18:30   49.4    43   18.8   254    26.5   999.00    683.9    999.0    999000   999000   999.0    999000   999.0
 144   18:35   49.4    43   20.1   255    27.3   999.00    683.8    999.0    999000   999000   999.0    999000   999.0
 144   18:40   49.1    43   23.3   237    43.5   999.00    683.9    999.0    999000   999000   999.0    999000   999.0
 144   18:45   48.5    44   20.9   219    29.5   999.00    683.9    999.0    999000   999000   999.0    999000   999.0
 144   18:50   48.1    45   15.0   213    25.8   999.00    683.9    999.0    999000   999000   999.0    999000   999.0
 144   18:55   48.0    45   12.1   215    21.7   999.00    683.9    999.0    999000   999000   999.0    999000   999.0
 144   19:00   48.5    44   18.3   228    27.3   999.00    683.8    999.0    999000   999000   999.0    999000   999.0
 144   19:05   48.5    42   20.5   260    30.5   999.00    683.8    999.0    999000   999000   999.0    999000   999.0
 144   19:10   49.0    41   12.7   254    20.2   999.00    683.8    999.0    999000   999000   999.0    999000   999.0
 144   19:15   48.8    42   12.9   254    19.9   999.00    683.8    999.0    999000   999000   999.0    999000   999.0
 144   19:20   48.5    43   12.8   252    17.4   999.00    683.8    999.0    999000   999000   999.0    999000   999.0
 144   19:25   48.2    44   13.9   242    26.4   999.00    683.9    999.0    999000   999000   999.0    999000   999.0
 144   19:30   47.8    43   25.1   248    42.4   999.00    683.7    999.0    999000   999000   999.0    999000   999.0
 144   19:35   48.2    41   24.8   253    35.5   999.00    683.5    999.0    999000   999000   999.0    999000   999.0
 144   19:40   48.8    38   27.7   246    35.9   999.00    683.4    999.0    999000   999000   999.0    999000   999.0
 144   19:45   48.7    39   21.5   253    28.8   999.00    683.5    999.0    999000   999000   999.0    999000   999.0
 144   19:50   48.3    40   24.0   245    31.8   999.00    683.4    999.0    999000   999000   999.0    999000   999.0
 144   19:55   47.9    41   22.8   241    27.9   999.00    683.4    999.0    999000   999000   999.0    999000   999.0
 144   20:00   47.6    42   21.6   237    27.3   999.00    683.5    999.0    999000   999000   999.0    999000   999.0
 144   20:05   47.7    41   22.1   232    28.0   999.00    683.5    999.0    999000   999000   999.0    999000   999.0
 144   20:10   47.9    42   21.0   230    26.5   999.00    683.6    999.0    999000   999000   999.0    999000   999.0
 144   20:15   47.5    43   11.8   232    18.9   999.00    683.7    999.0    999000   999000   999.0    999000   999.0
 144   20:20   46.6    45   13.3   231    21.0   999.00    683.7    999.0    999000   999000   999.0    999000   999.0
 144   20:25   47.2    43   17.6   230    22.3   999.00    683.7    999.0    999000   999000   999.0    999000   999.0
 144   20:30   47.2    43   17.0   231    21.9   999.00    683.7    999.0    999000   999000   999.0    999000   999.0
 144   20:35   47.4    43   16.4   231    19.9   999.00    683.7    999.0    999000   999000   999.0    999000   999.0
 144   20:40   47.1    44   14.4   231    16.9   999.00    683.6    999.0    999000   999000   999.0    999000   999.0
 144   20:45   47.2    43   14.6   229    18.2   999.00    683.5    999.0    999000   999000   999.0    999000   999.0
 144   20:50   47.4    43   10.5   228    15.0   999.00    683.5    999.0    999000   999000   999.0    999000   999.0
 144   20:55   47.5    43    6.8   228    10.7   999.00    683.5    999.0    999000   999000   999.0    999000   999.0
 144   21:00   47.6    43    7.3   227    10.9   999.00    683.5    999.0    999000   999000   999.0    999000   999.0
 144   21:05   47.6    43    7.0   227    11.8   999.00    683.4    999.0    999000   999000   999.0    999000   999.0
 144   21:10   47.7    43    7.2   227    10.9   999.00    683.4    999.0    999000   999000   999.0    999000   999.0
 144   21:15   48.0    42   10.3   224    15.2   999.00    683.4    999.0    999000   999000   999.0    999000   999.0
 144   21:20   48.0    42   11.7   219    18.0   999.00    683.4    999.0    999000   999000   999.0    999000   999.0
 144   21:25   48.0    41   12.5   216    18.4   999.00    683.5    999.0    999000   999000   999.0    999000   999.0
 144   21:30   47.8    41   12.9   212    19.5   999.00    683.3    999.0    999000   999000   999.0    999000   999.0
 144   21:35   47.9    41   14.6   208    24.0   999.00    683.3    999.0    999000   999000   999.0    999000   999.0
 144   21:40   47.8    41   19.3   200    29.7   999.00    683.4    999.0    999000   999000   999.0    999000   999.0
 144   21:45   46.4    45   22.6   188    31.6   999.00    683.6    999.0    999000   999000   999.0    999000   999.0
 144   21:50   44.5    50   13.1   192    22.3   999.00    683.5    999.0    999000   999000   999.0    999000   999.0
 144   21:55   44.7    50   16.4   183    21.7   999.00    683.4    999.0    999000   999000   999.0    999000   999.0
 144   22:00   43.8    53   16.6   152    25.6   999.00    683.3    999.0    999000   999000   999.0    999000   999.0
 144   22:05   43.6    54   18.8   148    26.2   999.00    683.3    999.0    999000   999000   999.0    999000   999.0
 144   22:10   44.0    53   17.7   149    26.7   999.00    683.2    999.0    999000   999000   999.0    999000   999.0
 144   22:15   44.5    51   20.4   150    28.0   999.00    683.2    999.0    999000   999000   999.0    999000   999.0
 144   22:20   44.8    50   19.8   176    26.9   999.00    683.2    999.0    999000   999000   999.0    999000   999.0
 144   22:25   45.6    47   20.8   196    33.1   999.00    683.1    999.0    999000   999000   999.0    999000   999.0
 144   22:30   46.1    46   18.9   201    30.3   999.00    683.0    999.0    999000   999000   999.0    999000   999.0
 144   22:35   46.1    45   17.8   203    28.0   999.00    682.9    999.0    999000   999000   999.0    999000   999.0
 144   22:40   46.9    43   19.6   214    33.4   999.00    682.8    999.0    999000   999000   999.0    999000   999.0
 144   22:45   47.2    42   24.1   215    35.7   999.00    682.8    999.0    999000   999000   999.0    999000   999.0
 144   22:50   47.8    40   22.6   211    35.7   999.00    682.9    999.0    999000   999000   999.0    999000   999.0
 144   22:55   46.9    42   18.5   194    26.4   999.00    682.8    999.0    999000   999000   999.0    999000   999.0
 144   23:00   47.3    42   16.0   200    25.1   999.00    682.7    999.0    999000   999000   999.0    999000   999.0
 144   23:05   46.9    42   13.0   203    18.5   999.00    682.8    999.0    999000   999000   999.0    999000   999.0
 144   23:10   46.2    44   13.4   204    18.2   999.00    682.8    999.0    999000   999000   999.0    999000   999.0
 144   23:15   46.1    44   17.9   197    24.0   999.00    682.7    999.0    999000   999000   999.0    999000   999.0
 144   23:20   46.0    44   19.5   184    25.2   999.00    682.6    999.0    999000   999000   999.0    999000   999.0
 144   23:25   45.7    45   20.9   169    27.5   999.00    682.5    999.0    999000   999000   999.0    999000   999.0
 144   23:30   46.2    44   22.2   174    30.1   999.00    682.4    999.0    999000   999000   999.0    999000   999.0
 144   23:35   46.1    45   20.0   174    25.1   999.00    682.4    999.0    999000   999000   999.0    999000   999.0
 144   23:40   45.9    45   17.9   167    22.8   999.00    682.3    999.0    999000   999000   999.0    999000   999.0
 144   23:45   45.8    46   18.7   180    28.4   999.00    682.4    999.0    999000   999000   999.0    999000   999.0
 144   23:50   45.4    47   13.0   204    28.4   999.00    682.7    999.0    999000   999000   999.0    999000   999.0
 144   23:55   44.4    50   12.9   227    24.5   999.00    682.7    999.0    999000   999000   999.0    999000   999.0
 145    0:00   44.9    49   25.5   225    41.8   999.00    682.4    999.0    999000   999000   999.0    999000   999.0
 145    0:05   44.7    49   22.9   251    34.5   999.00    682.3    999.0    999000   999000   999.0    999000   999.0
 145    0:10   43.9    52   21.3   277    33.4   999.00    682.2    999.0    999000   999000   999.0    999000   999.0
 145    0:15   43.7    54   24.5   269    44.6   999.00    682.3    999.0    999000   999000   999.0    999000   999.0
 145    0:20   44.2    53   33.2   236    41.8   999.00    682.6    999.0    999000   999000   999.0    999000   999.0
 145    0:25   44.3    52   27.9   242    34.4   999.00    682.7    999.0    999000   999000   999.0    999000   999.0
 145    0:30   43.9    53   26.9   241    35.1   999.00    682.6    999.0    999000   999000   999.0    999000   999.0
 145    0:35   43.9    53   26.2   241    33.8   999.00    682.6    999.0    999000   999000   999.0    999000   999.0
 145    0:40   43.6    53   26.9   243    33.1   999.00    682.6    999.0    999000   999000   999.0    999000   999.0
 145    0:45   43.3    55   23.0   243    30.1   999.00    682.6    999.0    999000   999000   999.0    999000   999.0
 145    0:50   42.9    56   23.8   246    31.4   999.00    682.6    999.0    999000   999000   999.0    999000   999.0
 145    0:55   43.1    56   30.0   253    40.0   999.00    682.5    999.0    999000   999000   999.0    999000   999.0
 145    1:00   42.8    57   27.0   261    36.0   999.00    682.5    999.0    999000   999000   999.0    999000   999.0
 145    1:05   42.7    58   30.5   264    44.6   999.00    682.3    999.0    999000   999000   999.0    999000   999.0
 145    1:10   42.4    60   29.7   270    41.2   999.00    682.4    999.0    999000   999000   999.0    999000   999.0
 145    1:15   41.7    63   24.4   258    32.3   999.00    682.6    999.0    999000   999000   999.0    999000   999.0
 145    1:20   41.1    66   21.8   266    33.4   999.00    682.7    999.0    999000   999000   999.0    999000   999.0
 145    1:25   40.3    70   16.1   275    21.0   999.00    682.9    999.0    999000   999000   999.0    999000   999.0
 145    1:30   39.4    73   16.5   282    21.5   999.00    682.9    999.0    999000   999000   999.0    999000   999.0
 145    1:35   38.9    75   15.5   283    23.6   999.00    683.1    999.0    999000   999000   999.0    999000   999.0
 145    1:40   38.6    78   12.2   281    23.0   999.00    683.1    999.0    999000   999000   999.0    999000   999.0
 145    1:45   38.8    78   16.4   271    29.2   999.00    683.0    999.0    999000   999000   999.0    999000   999.0
 145    1:50   39.1    76   10.4   268    17.1   999.00    683.0    999.0    999000   999000   999.0    999000   999.0
 145    1:55   39.4    74   14.6   265    19.3   999.00    682.9    999.0    999000   999000   999.0    999000   999.0
 145    2:00   40.0    72   16.5   261    19.7   999.00    682.8    999.0    999000   999000   999.0    999000   999.0
 145    2:05   40.1    71   12.2   254    17.6   999.00    682.7    999.0    999000   999000   999.0    999000   999.0
 145    2:10   39.6    74   10.4   227    20.8   999.00    682.6    999.0    999000   999000   999.0    999000   999.0
 145    2:15   38.4    80   14.4   187    19.7   999.00    682.5    999.0    999000   999000   999.0    999000   999.0
 145    2:20   38.0    82   13.3   185    17.6   999.00    682.3    999.0    999000   999000   999.0    999000   999.0
 145    2:25   37.8    83   13.1   187    19.1   999.00    682.4    999.0    999000   999000   999.0    999000   999.0
 145    2:30   37.7    83   14.3   189    21.0   999.00    682.4    999.0    999000   999000   999.0    999000   999.0
 145    2:35   37.6    84   14.9   192    18.4   999.00    682.3    999.0    999000   999000   999.0    999000   999.0
 145    2:40   37.7    83    9.0   194    15.0   999.00    682.3    999.0    999000   999000   999.0    999000   999.0
 145    2:45   37.8    83   10.1   195    19.7   999.00    682.3    999.0    999000   999000   999.0    999000   999.0
 145    2:50   37.7    83    8.3   196    14.3   999.00    682.0    999.0    999000   999000   999.0    999000   999.0
 145    2:55   38.1    81    3.8   198     7.6   999.00    682.0    999.0    999000   999000   999.0    999000   999.0
 145    3:00   38.3    80    7.2   199    14.3   999.00    682.0    999.0    999000   999000   999.0    999000   999.0
 145    3:05   38.8    78    8.9   204    24.7   999.00    681.9    999.0    999000   999000   999.0    999000   999.0
 145    3:10   40.1    72    9.1   212    18.9   999.00    681.9    999.0    999000   999000   999.0    999000   999.0
 145    3:15   39.8    73   12.6   214    21.9   999.00    681.9    999.0    999000   999000   999.0    999000   999.0
 145    3:20   40.4    70   15.4   212    28.0   999.00    681.9    999.0    999000   999000   999.0    999000   999.0
 145    3:25   41.0    67   14.8   209    26.0   999.00    682.0    999.0    999000   999000   999.0    999000   999.0
 145    3:30   40.5    69   12.7   213    18.9   999.00    682.1    999.0    999000   999000   999.0    999000   999.0
 145    3:35   40.1    70   19.8   227    32.5   999.00    682.3    999.0    999000   999000   999.0    999000   999.0
 145    3:40   40.3    70   15.6   221    22.3   999.00    682.4    999.0    999000   999000   999.0    999000   999.0
 145    3:45   40.3    69   18.7   221    29.5   999.00    682.2    999.0    999000   999000   999.0    999000   999.0
 145    3:50   40.1    70   13.8   228    22.1   999.00    682.2    999.0    999000   999000   999.0    999000   999.0
 145    3:55   40.1    70   19.5   228    25.8   999.00    682.1    999.0    999000   999000   999.0    999000   999.0
 145    4:00   40.5    67   21.6   231    27.5   999.00    682.1    999.0    999000   999000   999.0    999000   999.0
 145    4:05   40.3    69   16.6   232    21.5   999.00    682.2    999.0    999000   999000   999.0    999000   999.0
 145    4:10   40.0    71   18.1   232    23.0   999.00    682.2    999.0    999000   999000   999.0    999000   999.0
 145    4:15   39.7    71   19.6   234    24.9   999.00    682.2    999.0    999000   999000   999.0    999000   999.0
 145    4:20   40.2    69   21.2   238    26.5   999.00    682.2    999.0    999000   999000   999.0    999000   999.0
 145    4:25   40.6    66   21.2   245    27.7   999.00    682.2    999.0    999000   999000   999.0    999000   999.0
 145    4:30   40.5    67   19.9   252    25.8   999.00    682.2    999.0    999000   999000   999.0    999000   999.0
 145    4:35   40.1    70   18.7   251    23.8   999.00    682.3    999.0    999000   999000   999.0    999000   999.0

Return to DRI Storm Peak Lab. graphs page.


Western Regional Climate Center,wrcc@dri.edu